22 Nisan 2017, Cumartesi 09:21:53

Edremit'te gyrocopter kazası

Balıkesir’in Edremit ilçesinde, Balıkesir Koca Seyit Havalimanı'ndan kalkış yapmak isteyen 'Gyrocopter' cinsi iki kişilik özel helikopter, henüz belirlenemeyen bir sebepten dolayı kaza yaptı ve kırıma uğradı.
  • ARFF liler ajan gibi çalışıyorlar, hemen fotoğrafı veriyorlar.
  • Gyroyu çakmakta zordur muhtemelen pilotajdır
  • Hani kaza yapmazdi bunlar?
  • bu kopter bu rüzgarda(14kt)uçabilirmi? herhalde uçar . BALIKESİR KOCA SEYİT HAVALİMANI 22 Nisan - 15:50 [Çok Bulutlu] 14.2 1015.1 rüzgar hızı26km/sa EDREMIT KORFEZ MEYDAN ( LTFD - 17143 ) Metar 22.04.17 12:50 LTFD 221250Z 10014KT 9999 FEW035 BKN180 14/M00 Q1015 RMK RWY23 09011KT 050V110 = 22.04.17 11:50 LTFD 221150Z 07013KT 9999 FEW035 BKN180 15/00 Q1016 RMK RWY23 06012KT = 22.04.17 10:50 LTFD 221050Z 06014KT 9999 FEW035 BKN180 14/01 Q1017 = Taf 22.04.17 10:40 LTFD 221040Z 2212/2221 07015KT 9999 FEW035 BKN200 =
  • Uygun olmayan hava şartlarında(sis-bulut-kar-şiddetli yağmur-rüzgar-türbülans vb.)uçulmaması gerektiğini,her hava aracının bundan daha önemlisi her pilotun bir limiti olduğunu, bunun büyük risk olduğunu malesef bir türlü algılayamıyoruz. yuriçinde ve dışında neredeyse her ay kazalar oluyor,görüyoruz duyuyoruz okuyoruz üzülüyoruz vah vah diyoruz yine algılayamıyoruz ve aynı hatalarda ısrar ediyoruz.Bakar duyar okur kör mü olduk ne olduk anlayamadık?? geçmiş olsun bu kadarıyla ucuz atlatılmış.
  • Pilot arkadaş tecrübesizdi ve kalkış anında burnu çok hızlı ve fazla çekmesinden dolayı kuyruğu piste çarparak pist dışına çıktı ve pervanesini çarptıktan sonra durdu. Ucuz atlatılmış bir kaza, hava çok rüzgarlıydı daha kötü bir şey de olabilirdi.
  • Uçak yeni satılmıştı ilk uçuşuydu. Emin olmamakla birlikte pilotun acemiliğinden kaynaklanmış olabilir diye düşünüyorum.
  • Herkimse geçmiş olsun. Gyro çok güzel bir araç. Dileriz daha da yayılır ve mobilet gibi herkes kullanır bir gün

Balıkesir’in Edremit ilçesinde, Balıkesir Koca Seyit Havalimanı'ndan kalkış yapmak isteyen 'Gyrocopter' cinsi iki kişilik özel helikopter, henüz belirlenemeyen bir sebepten dolayı kaza yaptı ve kırıma uğradı.

Edinilen bilgiye göre, TC-UFU tescilli Gyrocopter cinsi özel helikopter saat 15.30 sıralarında Koca Seyit Havalimanı pistinden kalkmak isterken henüz belirlenemeyen bir sebepten dolayı kontrolden çıktı.

Pist dışına savrulan helikopterin ana pervanesinde ağır hasar meydana geldi. Pilot Yücel Yondemir kazayı yara almadan atlatırken, Koca Seyit ARFF yangın kurtarma ekipleri hemen olaya müdahale ederek, olası bir yangına karşı önlem aldılar.

Olayla ilgili kaza kırım ekiplerinin soruşturma için kazayı raporlaması bekleniyor.



Edremit'te gyrocopter kazası

Facebook Yorum

Yorumlar Tüm Yorumlar (14)

Geçmiş olsun ~ 1 yıl önce
ARFF liler ajan gibi çalışıyorlar, hemen fotoğrafı veriyorlar.

Yanıtla

Kalan karakter 1000
Ppg ~ 1 yıl önce
Gyroyu çakmakta zordur muhtemelen pilotajdır

Yanıtla

Kalan karakter 1000
773 ~ 1 yıl önce
Hani kaza yapmazdi bunlar?

Yanıtla

Kalan karakter 1000
Ne ayaksın ~ 1 yıl önce
Sen ayaksın birader? Kazayı yapan tayyare değil, insan
Rüzgar ~ 1 yıl önce
bu kopter bu rüzgarda(14kt)uçabilirmi? herhalde uçar . BALIKESİR KOCA SEYİT HAVALİMANI 22 Nisan - 15:50 [Çok Bulutlu] 14.2 1015.1 rüzgar hızı26km/sa EDREMIT KORFEZ MEYDAN ( LTFD - 17143 ) Metar 22.04.17 12:50 LTFD 221250Z 10014KT 9999 FEW035 BKN180 14/M00 Q1015 RMK RWY23 09011KT 050V110 = 22.04.17 11:50 LTFD 221150Z 07013KT 9999 FEW035 BKN180 15/00 Q1016 RMK RWY23 06012KT = 22.04.17 10:50 LTFD 221050Z 06014KT 9999 FEW035 BKN180 14/01 Q1017 = Taf 22.04.17 10:40 LTFD 221040Z 2212/2221 07015KT 9999 FEW035 BKN200 =

Yanıtla

Kalan karakter 1000
ucar ~ 1 yıl önce
sikinti yok, 14 kts sert bir ruzgar degil bu araclar icin. 25 kts dan sonra sikinti olabilir
yetti gari ~ 1 yıl önce
Uygun olmayan hava şartlarında(sis-bulut-kar-şiddetli yağmur-rüzgar-türbülans vb.)uçulmaması gerektiğini,her hava aracının bundan daha önemlisi her pilotun bir limiti olduğunu, bunun büyük risk olduğunu malesef bir türlü algılayamıyoruz. yuriçinde ve dışında neredeyse her ay kazalar oluyor,görüyoruz duyuyoruz okuyoruz üzülüyoruz vah vah diyoruz yine algılayamıyoruz ve aynı hatalarda ısrar ediyoruz.Bakar duyar okur kör mü olduk ne olduk anlayamadık?? geçmiş olsun bu kadarıyla ucuz atlatılmış.

Yanıtla

Kalan karakter 1000
bi sus ~ 1 yıl önce
bi sus gari
Edo ~ 1 yıl önce
Bu pilot özelinde konusmuyorum ama uçuş okullarında egolu hocalar çok fazla. 40 knot rüzgarda uçmak daha zevkli diyende var, görüş 3000 m iken bize farketmez izin verirseniz uçarız diyecek kadar kurallardan bihaber olanlarda var. Meydan civarında towering cumulus varken yinede kalkanda. Bazı kişiler durumun ciddiyetini anlayamıyor sanırım.
görgü tanığı ~ 1 yıl önce
Pilot arkadaş tecrübesizdi ve kalkış anında burnu çok hızlı ve fazla çekmesinden dolayı kuyruğu piste çarparak pist dışına çıktı ve pervanesini çarptıktan sonra durdu. Ucuz atlatılmış bir kaza, hava çok rüzgarlıydı daha kötü bir şey de olabilirdi.

Yanıtla

Kalan karakter 1000
Edo ~ 1 yıl önce
Uçak yeni satılmıştı ilk uçuşuydu. Emin olmamakla birlikte pilotun acemiliğinden kaynaklanmış olabilir diye düşünüyorum.

Yanıtla

Kalan karakter 1000
Olabilir ~ 1 yıl önce
Mumkundur olabilir tabi. Keske bol bol tecrube kazanacak gyro kluplerimiz olsa. Gidip haftasonlari tecrubleri pilotlarla ucabilsek. Ne guzel olurdu degil mi? Lisansi alip arac ithatina girismezdi kimse. Once bol bol ucus yapardi.
Geçmiş olsun ~ 1 yıl önce
Herkimse geçmiş olsun. Gyro çok güzel bir araç. Dileriz daha da yayılır ve mobilet gibi herkes kullanır bir gün

Yanıtla

Kalan karakter 1000
Rakun ~ 1 yıl önce
Mobilet gibi susturucusuz modifiye olmasında...

Yorum Gönder

Kalan karakter 1000